createdAt,value
2019-02-17T00:01:08.523Z,9.33
2019-02-17T00:03:46.034Z,8.67
2019-02-17T00:06:25.850Z,8.97
2019-02-17T00:09:03.410Z,8.20
2019-02-17T00:11:41.054Z,7.90
2019-02-17T00:14:18.576Z,8.50
2019-02-17T00:16:56.106Z,8.50
2019-02-17T00:19:33.633Z,8.37
2019-02-17T00:22:20.436Z,8.00
2019-02-17T00:24:57.972Z,8.50
2019-02-17T00:27:35.463Z,8.37
2019-02-17T00:30:13.095Z,8.97
2019-02-17T00:33:00.109Z,8.70
2019-02-17T00:35:37.680Z,9.57
2019-02-17T00:38:15.195Z,9.40
2019-02-17T00:40:53.843Z,9.27
2019-02-17T00:43:31.343Z,10.73
2019-02-17T00:46:08.892Z,10.00
2019-02-17T00:48:46.400Z,10.90
2019-02-17T00:51:24.004Z,10.30
2019-02-17T00:54:01.519Z,9.83
2019-02-17T00:56:39.060Z,9.43
2019-02-17T00:59:16.596Z,9.57
2019-02-17T01:01:57.438Z,10.10
2019-02-17T01:04:34.966Z,10.83
2019-02-17T01:07:12.476Z,11.00
2019-02-17T01:09:50.001Z,10.70
2019-02-17T01:12:27.579Z,11.00
2019-02-17T01:15:05.116Z,10.60
2019-02-17T01:17:42.624Z,10.67
2019-02-17T01:20:26.547Z,10.10
2019-02-17T01:23:04.063Z,9.23
2019-02-17T01:25:41.645Z,10.03
2019-02-17T01:28:19.143Z,10.40
2019-02-17T01:31:04.815Z,9.63
2019-02-17T01:33:42.330Z,10.30
2019-02-17T01:36:19.864Z,10.80
2019-02-17T01:38:57.354Z,9.37
2019-02-17T01:41:35.058Z,10.00
2019-02-17T01:44:12.583Z,10.37
2019-02-17T01:46:50.101Z,10.23
2019-02-17T01:49:27.619Z,9.80
2019-02-17T01:52:07.626Z,9.97
2019-02-17T01:54:45.173Z,9.47
2019-02-17T01:57:22.685Z,10.37
2019-02-17T02:00:00.370Z,10.07
2019-02-17T02:02:37.737Z,10.27
2019-02-17T02:05:15.270Z,10.40
2019-02-17T02:07:52.787Z,10.30
2019-02-17T02:10:33.734Z,10.23
2019-02-17T02:13:11.240Z,9.67
2019-02-17T02:15:48.767Z,9.20
2019-02-17T02:18:26.275Z,9.63
2019-02-17T02:21:03.888Z,10.20
2019-02-17T02:23:41.406Z,9.93
2019-02-17T02:26:18.914Z,10.20
2019-02-17T02:28:56.433Z,9.97
2019-02-17T02:31:34.058Z,9.53
2019-02-17T02:34:11.558Z,9.67
2019-02-17T02:36:49.092Z,10.60
2019-02-17T02:39:26.574Z,8.90
2019-02-17T02:42:15.968Z,9.57
2019-02-17T02:44:53.492Z,9.30
2019-02-17T02:47:31.021Z,9.47
2019-02-17T02:50:18.221Z,10.00
2019-02-17T02:52:55.729Z,9.47
2019-02-17T02:55:33.257Z,9.40
2019-02-17T02:58:10.784Z,8.57
2019-02-17T03:01:05.905Z,9.63
2019-02-17T03:03:45.960Z,10.07
2019-02-17T03:06:33.353Z,11.00
2019-02-17T03:09:10.881Z,10.43
2019-02-17T03:12:28.726Z,11.30
2019-02-17T03:15:06.267Z,10.83
2019-02-17T03:17:43.802Z,10.00
2019-02-17T03:20:24.566Z,11.00
2019-02-17T03:23:02.066Z,9.67
2019-02-17T03:25:39.623Z,10.37
2019-02-17T03:28:17.131Z,10.60
2019-02-17T03:30:54.722Z,10.37
2019-02-17T03:33:32.216Z,11.33
2019-02-17T03:36:09.736Z,11.20
2019-02-17T03:38:47.235Z,9.70
2019-02-17T03:41:34.551Z,10.67
2019-02-17T03:44:12.049Z,10.17
2019-02-17T03:46:49.583Z,11.10
2019-02-17T03:49:27.097Z,10.77
2019-02-17T03:52:15.014Z,11.10
2019-02-17T03:54:52.516Z,10.70
2019-02-17T03:57:30.042Z,12.30
2019-02-17T04:00:17.032Z,11.70
2019-02-17T04:02:48.531Z,11.40
2019-02-17T04:05:26.039Z,11.37
2019-02-17T04:08:03.565Z,11.13
2019-02-17T04:10:57.628Z,11.47
2019-02-17T04:13:35.139Z,11.20
2019-02-17T04:16:12.664Z,10.63
2019-02-17T04:18:50.182Z,11.13
2019-02-17T04:21:27.819Z,10.47
2019-02-17T04:24:05.326Z,11.47
2019-02-17T04:26:42.851Z,11.07
2019-02-17T04:29:20.349Z,12.27
2019-02-17T04:31:57.993Z,11.10
2019-02-17T04:34:35.503Z,14.27
2019-02-17T04:37:13.032Z,12.03
2019-02-17T04:39:50.663Z,10.87
2019-02-17T04:42:28.220Z,11.50
2019-02-17T04:45:05.727Z,11.13
2019-02-17T04:47:43.252Z,12.17
2019-02-17T04:50:27.670Z,12.90
2019-02-17T04:53:05.202Z,11.73
2019-02-17T04:55:42.735Z,11.87
2019-02-17T04:58:20.260Z,11.90
2019-02-17T05:00:57.856Z,12.30
2019-02-17T05:03:35.368Z,12.27
2019-02-17T05:06:12.864Z,12.90
2019-02-17T05:08:50.393Z,13.37
2019-02-17T05:11:28.034Z,12.73
2019-02-17T05:14:05.538Z,12.53
2019-02-17T05:16:43.047Z,13.67
2019-02-17T05:19:20.545Z,12.97
2019-02-17T05:21:58.085Z,11.67
2019-02-17T05:24:35.590Z,12.63
2019-02-17T05:27:13.160Z,12.33
2019-02-17T05:29:50.750Z,12.37
2019-02-17T05:32:28.287Z,12.53
2019-02-17T05:35:05.949Z,12.97
2019-02-17T05:37:43.456Z,12.33
2019-02-17T05:40:37.078Z,13.47
2019-02-17T05:43:14.627Z,13.50
2019-02-17T05:45:52.170Z,13.13
2019-02-17T05:48:29.679Z,12.70
2019-02-17T05:51:07.276Z,13.83
2019-02-17T05:53:44.808Z,12.27
2019-02-17T05:56:22.309Z,13.20
2019-02-17T05:58:59.849Z,13.90
2019-02-17T06:01:37.490Z,13.90
2019-02-17T06:04:15.005Z,12.43
2019-02-17T06:06:52.516Z,12.10
2019-02-17T06:09:30.135Z,12.33
2019-02-17T06:12:07.659Z,12.43
2019-02-17T06:14:45.166Z,11.87
2019-02-17T06:17:22.688Z,12.03
2019-02-17T06:20:00.332Z,11.80
2019-02-17T06:22:37.834Z,11.67
2019-02-17T06:25:15.324Z,12.40
2019-02-17T06:27:52.853Z,12.90
2019-02-17T06:30:30.481Z,14.30
2019-02-17T06:33:08.012Z,13.73
2019-02-17T06:35:45.522Z,14.03
2019-02-17T06:38:23.042Z,13.43
2019-02-17T06:41:00.656Z,12.70
2019-02-17T06:43:38.169Z,13.17
2019-02-17T06:46:19.379Z,13.33
2019-02-17T06:48:56.926Z,13.37
2019-02-17T06:51:44.789Z,11.90
2019-02-17T06:54:22.322Z,14.30
2019-02-17T06:57:07.394Z,28.87
2019-02-17T06:59:45.008Z,22.03
2019-02-17T07:02:22.518Z,19.87
2019-02-17T07:05:17.985Z,21.17
2019-02-17T07:07:55.499Z,19.00
2019-02-17T07:10:46.217Z,16.13
2019-02-17T07:13:23.751Z,18.53
2019-02-17T07:16:01.269Z,19.20
2019-02-17T07:18:38.795Z,17.80
2019-02-17T07:21:22.695Z,18.30
2019-02-17T07:24:00.254Z,19.80
2019-02-17T07:26:37.745Z,18.10
2019-02-17T07:29:21.348Z,15.33
2019-02-17T07:31:59.112Z,13.60
2019-02-17T07:34:36.633Z,13.67
2019-02-17T07:37:14.618Z,13.83
2019-02-17T07:39:52.242Z,14.10
2019-02-17T07:42:29.944Z,13.73
2019-02-17T07:45:07.624Z,14.00
2019-02-17T07:47:45.149Z,13.53
2019-02-17T07:50:25.986Z,14.10
2019-02-17T07:53:03.538Z,13.87
2019-02-17T07:55:41.078Z,15.37
2019-02-17T07:58:18.637Z,13.90
2019-02-17T08:00:56.267Z,13.13
2019-02-17T08:03:33.827Z,15.43
2019-02-17T08:06:11.350Z,14.37
2019-02-17T08:08:49.016Z,14.23
2019-02-17T08:11:26.753Z,16.37
2019-02-17T08:14:04.333Z,15.37
2019-02-17T08:16:41.874Z,14.50
2019-02-17T08:19:20.494Z,15.77
2019-02-17T08:21:58.362Z,16.03
2019-02-17T08:24:35.928Z,16.30
2019-02-17T08:27:13.462Z,16.27
2019-02-17T08:29:55.075Z,16.30
2019-02-17T08:32:32.564Z,16.23
2019-02-17T08:35:10.161Z,15.87
2019-02-17T08:37:47.698Z,16.60
2019-02-17T08:40:44.312Z,15.33
2019-02-17T08:43:21.822Z,16.50
2019-02-17T08:45:59.339Z,17.27
2019-02-17T08:48:36.860Z,19.00
2019-02-17T08:51:15.777Z,16.67
2019-02-17T08:53:53.798Z,17.20
2019-02-17T08:56:31.309Z,18.07
2019-02-17T08:59:08.927Z,17.53
2019-02-17T09:01:49.756Z,17.57
2019-02-17T09:04:27.303Z,17.93
2019-02-17T09:07:06.455Z,17.50
2019-02-17T09:09:52.529Z,17.97
2019-02-17T09:12:30.050Z,19.53
2019-02-17T09:15:08.643Z,18.93
2019-02-17T09:17:46.158Z,25.77
2019-02-17T09:21:10.838Z,23.27
2019-02-17T09:23:48.384Z,22.80
2019-02-17T09:26:25.897Z,19.47
2019-02-17T09:29:09.846Z,18.80
2019-02-17T09:31:47.428Z,20.00
2019-02-17T09:34:24.992Z,20.13
2019-02-17T09:37:02.497Z,19.63
2019-02-17T09:40:08.842Z,19.43
2019-02-17T09:42:46.447Z,19.73
2019-02-17T09:45:23.999Z,20.00
2019-02-17T09:48:01.605Z,19.90
2019-02-17T09:51:49.964Z,20.70
2019-02-17T09:54:27.518Z,20.30
2019-02-17T09:57:05.057Z,21.83
2019-02-17T10:00:17.863Z,21.80
2019-02-17T10:02:55.416Z,22.67
2019-02-17T10:05:33.002Z,21.87
2019-02-17T10:08:10.548Z,20.40
2019-02-17T10:10:48.171Z,21.43
2019-02-17T10:13:25.720Z,20.47
2019-02-17T10:16:03.287Z,21.83
2019-02-17T10:18:54.225Z,20.83
2019-02-17T10:21:31.831Z,20.37
2019-02-17T10:24:09.540Z,20.77
2019-02-17T10:26:51.159Z,20.23
2019-02-17T10:29:28.808Z,21.83
2019-02-17T10:32:06.408Z,22.23
2019-02-17T10:34:44.002Z,22.77
2019-02-17T10:37:21.602Z,21.77
2019-02-17T10:40:00.298Z,22.67
2019-02-17T10:42:37.790Z,21.03
2019-02-17T10:45:15.523Z,22.20
2019-02-17T10:47:53.081Z,21.43
2019-02-17T10:50:30.845Z,22.63
2019-02-17T10:53:08.668Z,22.93
2019-02-17T10:55:46.248Z,22.60
2019-02-17T10:58:41.410Z,22.30
2019-02-17T11:01:19.007Z,24.30
2019-02-17T11:04:12.313Z,23.93
2019-02-17T11:06:49.936Z,21.60
2019-02-17T11:13:24.693Z,23.10
2019-02-17T11:16:02.283Z,22.97
2019-02-17T11:22:37.419Z,27.27
2019-02-17T11:25:15.017Z,28.30
2019-02-17T11:27:52.615Z,26.17
2019-02-17T11:30:30.209Z,24.30
2019-02-17T11:33:07.981Z,28.13
2019-02-17T11:35:45.601Z,26.23
2019-02-17T11:39:20.605Z,28.30
2019-02-17T11:41:58.243Z,26.57
2019-02-17T11:44:35.843Z,27.83
2019-02-17T11:47:13.402Z,26.50
2019-02-17T11:50:07.549Z,27.53
2019-02-17T11:52:45.123Z,26.57
2019-02-17T11:55:22.955Z,24.63
2019-02-17T11:58:06.665Z,29.80
2019-02-17T12:00:44.228Z,26.53
2019-02-17T12:03:21.887Z,26.03
2019-02-17T12:05:59.549Z,23.17
2019-02-17T12:12:34.036Z,23.10
2019-02-17T12:15:12.642Z,25.87
2019-02-17T12:17:50.176Z,26.30
2019-02-17T12:20:47.273Z,21.47
2019-02-17T12:23:34.783Z,22.40
2019-02-17T12:26:21.711Z,23.40
2019-02-17T12:29:19.052Z,24.40
2019-02-17T12:31:58.159Z,25.77
2019-02-17T12:34:35.580Z,23.70
2019-02-17T12:37:13.160Z,25.27
2019-02-17T12:39:50.809Z,24.97
2019-02-17T12:42:28.358Z,23.47
2019-02-17T12:45:05.958Z,22.93
2019-02-17T12:47:43.444Z,26.27
2019-02-17T12:50:21.016Z,27.10
2019-02-17T12:52:58.539Z,25.77
2019-02-17T12:55:36.072Z,25.57
2019-02-17T12:58:30.018Z,25.17
2019-02-17T13:01:04.600Z,21.67
2019-02-17T13:03:42.134Z,23.67
2019-02-17T13:06:19.691Z,23.73
2019-02-17T13:08:57.469Z,23.23
2019-02-17T13:11:35.016Z,24.87
2019-02-17T13:14:12.536Z,25.47
2019-02-17T13:16:50.063Z,27.30
2019-02-17T13:19:27.715Z,22.43
2019-02-17T13:22:05.251Z,23.17
2019-02-17T13:24:42.797Z,23.83
2019-02-17T13:27:20.342Z,22.30
2019-02-17T13:29:57.834Z,23.13
2019-02-17T13:32:35.435Z,24.03
2019-02-17T13:35:12.951Z,21.37
2019-02-17T13:37:51.551Z,20.40
2019-02-17T13:40:29.122Z,24.53
2019-02-17T13:43:06.636Z,22.57
2019-02-17T13:45:44.823Z,24.17
2019-02-17T13:48:21.709Z,20.90
2019-02-17T13:50:59.227Z,23.43
2019-02-17T13:53:36.711Z,23.70
2019-02-17T13:56:14.269Z,20.90
2019-02-17T13:58:51.873Z,21.43
2019-02-17T14:01:29.421Z,20.83
2019-02-17T14:04:06.928Z,19.37
2019-02-17T14:06:44.446Z,19.07
2019-02-17T14:09:22.042Z,18.93
2019-02-17T14:11:59.576Z,19.07
2019-02-17T14:14:38.783Z,19.63
2019-02-17T14:17:14.611Z,19.80
2019-02-17T14:19:52.113Z,18.47
2019-02-17T14:22:29.634Z,17.77
2019-02-17T14:25:07.140Z,17.50
2019-02-17T14:27:47.009Z,17.20
2019-02-17T14:30:24.285Z,18.70
2019-02-17T14:33:01.805Z,16.90
2019-02-17T14:35:39.343Z,18.30
2019-02-17T14:38:33.408Z,19.63
2019-02-17T14:41:10.955Z,20.50
2019-02-17T14:43:48.481Z,19.33
2019-02-17T14:46:26.003Z,20.00
2019-02-17T14:49:07.866Z,20.70
2019-02-17T14:51:45.423Z,21.80
2019-02-17T14:54:23.007Z,21.90
2019-02-17T14:57:00.530Z,20.50
2019-02-17T14:59:38.297Z,19.70
2019-02-17T15:02:29.950Z,21.37
2019-02-17T15:05:07.752Z,20.67
2019-02-17T15:07:51.096Z,20.60
2019-02-17T15:10:28.990Z,20.47
2019-02-17T15:17:23.348Z,21.63
2019-02-17T15:20:00.901Z,21.73
2019-02-17T15:22:38.454Z,21.37
2019-02-17T15:25:16.004Z,22.83
2019-02-17T15:28:03.323Z,21.97
2019-02-17T15:30:40.889Z,22.33
2019-02-17T15:33:18.427Z,22.73
2019-02-17T15:35:56.003Z,23.00
2019-02-17T15:39:31.699Z,22.27
2019-02-17T15:42:09.405Z,21.93
2019-02-17T15:44:46.973Z,23.53
2019-02-17T15:47:34.199Z,23.73
2019-02-17T15:50:12.362Z,22.93
2019-02-17T15:52:49.876Z,22.83
2019-02-17T15:55:27.408Z,21.77
2019-02-17T15:58:23.653Z,22.23
2019-02-17T16:01:01.193Z,22.53
2019-02-17T16:03:38.827Z,21.73
2019-02-17T16:06:16.499Z,20.80
2019-02-17T16:08:55.236Z,21.80
2019-02-17T16:11:32.856Z,21.33
2019-02-17T16:14:10.416Z,22.07
2019-02-17T16:16:48.170Z,23.00
2019-02-17T16:19:25.724Z,22.50
2019-02-17T16:22:03.275Z,22.53
2019-02-17T16:24:40.870Z,22.47
2019-02-17T16:27:37.263Z,24.20
2019-02-17T16:30:16.898Z,23.40
2019-02-17T16:32:54.510Z,28.87
2019-02-17T16:35:32.487Z,23.37
2019-02-17T16:38:10.813Z,22.93
2019-02-17T16:40:48.439Z,24.50
2019-02-17T16:43:26.434Z,24.83
2019-02-17T16:46:23.286Z,24.10
2019-02-17T16:49:09.387Z,23.70
2019-02-17T16:51:46.973Z,24.20
2019-02-17T16:54:24.534Z,24.50
2019-02-17T16:57:08.639Z,28.00
2019-02-17T16:59:46.251Z,26.10
2019-02-17T17:02:23.819Z,24.27
2019-02-17T17:05:01.358Z,24.13
2019-02-17T17:08:19.699Z,24.97
2019-02-17T17:10:57.227Z,24.80
2019-02-17T17:13:34.810Z,25.70
2019-02-17T17:16:12.373Z,27.47
2019-02-17T17:18:55.228Z,28.83
2019-02-17T17:21:32.739Z,23.93
2019-02-17T17:24:10.333Z,26.43
2019-02-17T17:27:12.708Z,26.13
2019-02-17T17:29:54.006Z,23.03
2019-02-17T17:32:31.574Z,23.53
2019-02-17T17:35:09.959Z,22.73
2019-02-17T17:37:50.853Z,23.10
2019-02-17T17:40:28.448Z,24.60
2019-02-17T17:43:06.003Z,27.30
2019-02-17T17:45:43.551Z,30.10
2019-02-17T17:48:32.240Z,29.40
2019-02-17T17:51:10.946Z,28.53
2019-02-17T17:53:52.196Z,31.27
2019-02-17T17:59:12.526Z,31.90
2019-02-17T18:01:50.021Z,31.17
2019-02-17T18:04:27.527Z,30.97
2019-02-17T18:07:05.032Z,30.80
2019-02-17T18:09:42.570Z,30.47
2019-02-17T18:12:20.124Z,29.37
2019-02-17T18:14:57.647Z,31.67
2019-02-17T18:17:54.823Z,42.97
2019-02-17T18:20:30.304Z,33.27
2019-02-17T18:23:28.021Z,32.87
2019-02-17T18:26:05.705Z,31.00
2019-02-17T18:28:46.480Z,29.83
2019-02-17T18:31:23.988Z,27.10
2019-02-17T18:34:01.523Z,27.20
2019-02-17T18:36:39.117Z,25.40
2019-02-17T18:39:16.737Z,22.67
2019-02-17T18:41:54.136Z,22.33
2019-02-17T18:44:31.660Z,21.93
2019-02-17T18:47:19.941Z,22.33
2019-02-17T18:49:56.601Z,19.33
2019-02-17T18:52:34.135Z,19.17
2019-02-17T18:55:12.614Z,19.10
2019-02-17T18:57:51.193Z,18.30
2019-02-17T19:00:27.812Z,18.87
2019-02-17T19:03:05.322Z,17.00
2019-02-17T19:05:42.854Z,17.17
2019-02-17T19:08:37.209Z,15.27
2019-02-17T19:11:14.719Z,14.23
2019-02-17T19:13:52.286Z,13.90
2019-02-17T19:16:34.287Z,12.50
2019-02-17T19:19:11.789Z,11.60
2019-02-17T19:21:49.292Z,11.70
2019-02-17T19:24:26.899Z,12.13
2019-02-17T19:27:08.986Z,11.40
2019-02-17T19:29:46.554Z,11.93
2019-02-17T19:32:24.072Z,11.97
2019-02-17T19:35:01.575Z,11.60
2019-02-17T19:37:42.186Z,12.40
2019-02-17T19:40:19.675Z,13.17
2019-02-17T19:42:57.203Z,12.70
2019-02-17T19:45:34.731Z,12.00
2019-02-17T19:48:13.301Z,11.87
2019-02-17T19:50:50.924Z,10.97
2019-02-17T19:53:28.464Z,11.50
2019-02-17T19:56:07.528Z,11.43
2019-02-17T19:58:43.448Z,11.27
2019-02-17T20:01:20.955Z,11.73
2019-02-17T20:04:04.121Z,11.60
2019-02-17T20:06:43.711Z,12.73
2019-02-17T20:09:21.499Z,12.47
2019-02-17T20:11:58.976Z,12.20
2019-02-17T20:14:37.636Z,13.87
2019-02-17T20:17:18.376Z,12.33
2019-02-17T20:19:55.923Z,11.80
2019-02-17T20:22:33.418Z,11.40
2019-02-17T20:25:10.969Z,10.37
2019-02-17T20:27:48.545Z,10.43
2019-02-17T20:30:26.042Z,17.37
2019-02-17T20:33:03.526Z,27.07
2019-02-17T20:35:41.036Z,28.27
2019-02-17T20:38:19.063Z,16.00
2019-02-17T20:40:56.649Z,11.60
2019-02-17T20:43:34.246Z,11.30
2019-02-17T20:46:20.520Z,10.57
2019-02-17T20:48:58.034Z,10.80
2019-02-17T20:51:35.538Z,10.70
2019-02-17T20:54:13.055Z,11.40
2019-02-17T20:57:03.702Z,12.03
2019-02-17T20:59:41.219Z,10.70
2019-02-17T21:02:18.723Z,10.37
2019-02-17T21:04:56.216Z,11.03
2019-02-17T21:07:43.692Z,10.93
2019-02-17T21:10:21.208Z,10.73
2019-02-17T21:12:58.687Z,10.77
2019-02-17T21:15:36.250Z,10.63
2019-02-17T21:18:13.725Z,11.00
2019-02-17T21:20:51.234Z,11.40
2019-02-17T21:23:28.719Z,11.00
2019-02-17T21:26:06.343Z,10.50
2019-02-17T21:28:43.818Z,9.53
2019-02-17T21:31:21.323Z,10.60
2019-02-17T21:33:58.868Z,10.47
2019-02-17T21:36:39.773Z,10.43
2019-02-17T21:39:17.271Z,10.73
2019-02-17T21:41:54.820Z,10.53
2019-02-17T21:44:32.390Z,11.27
2019-02-17T21:47:45.106Z,10.80
2019-02-17T21:50:22.616Z,11.30
2019-02-17T21:53:00.111Z,10.70
2019-02-17T21:55:40.949Z,11.57
2019-02-17T21:58:18.467Z,11.53
2019-02-17T22:00:55.998Z,11.30
2019-02-17T22:03:33.486Z,11.37
2019-02-17T22:06:11.123Z,11.40
2019-02-17T22:08:48.587Z,11.00
2019-02-17T22:11:26.092Z,11.03
2019-02-17T22:14:03.595Z,11.13
2019-02-17T22:16:47.848Z,11.60
2019-02-17T22:19:25.732Z,11.70
2019-02-17T22:22:03.242Z,11.37
2019-02-17T22:24:40.727Z,11.93
2019-02-17T22:27:21.587Z,12.27
2019-02-17T22:29:59.081Z,12.53
2019-02-17T22:32:36.582Z,11.33
2019-02-17T22:35:14.058Z,12.20
2019-02-17T22:37:51.566Z,11.77
2019-02-17T22:40:29.084Z,12.13
2019-02-17T22:43:06.583Z,11.83
2019-02-17T22:45:54.053Z,12.17
2019-02-17T22:48:31.550Z,12.43
2019-02-17T22:51:09.107Z,12.43
2019-02-17T22:53:46.586Z,12.63
2019-02-17T22:56:27.310Z,12.30
2019-02-17T22:59:04.793Z,13.57
2019-02-17T23:01:42.307Z,12.83
2019-02-17T23:04:19.787Z,14.33
2019-02-17T23:06:57.376Z,14.07
2019-02-17T23:09:34.843Z,14.90
2019-02-17T23:12:12.358Z,13.53
2019-02-17T23:14:49.828Z,14.47
2019-02-17T23:17:37.280Z,15.67
2019-02-17T23:20:14.781Z,15.00
2019-02-17T23:22:52.305Z,15.10
2019-02-17T23:25:39.128Z,14.73
2019-02-17T23:28:16.631Z,13.33
2019-02-17T23:30:54.143Z,14.90
2019-02-17T23:33:31.616Z,14.73
2019-02-17T23:36:15.270Z,14.97
2019-02-17T23:38:52.758Z,15.07
2019-02-17T23:41:30.297Z,14.40
2019-02-17T23:44:07.775Z,14.13
2019-02-17T23:46:55.146Z,14.43
2019-02-17T23:49:32.646Z,14.47
2019-02-17T23:52:10.161Z,14.53
2019-02-17T23:54:47.650Z,14.57
2019-02-17T23:57:28.818Z,15.40
